Time;durP1;ratioP1;P1;durP2;ratioP2;P2;SDS_P1;SDS_P2;PMS_P1;PMS_P2;Temp;Humidity;BMP_temperature;BMP_pressure;BME280_temperature;BME280_humidity;BME280_pressure;Samples;Min_cycle;Max_cycle;Signal;HPM_P1;HPM_P2
2022/09/28 00:01:04;;;;;;;32.97;10.43;;;;;;;39.90;37.06;101175.59;5051528;28;20983;-75
2022/09/28 00:03:30;;;;;;;13.77;6.13;;;;;;;39.81;36.76;101166.63;5051279;28;20415;-76
2022/09/28 00:06:02;;;;;;;10.30;5.63;;;;;;;40.07;36.43;101159.41;5051645;28;20537;-75
2022/09/28 00:08:28;;;;;;;13.90;7.73;;;;;;;40.09;35.96;101167.28;5051213;28;20496;-74
2022/09/28 00:10:55;;;;;;;18.13;6.67;;;;;;;39.71;36.65;101163.06;5051502;28;20980;-73
2022/09/28 00:13:21;;;;;;;22.40;8.00;;;;;;;40.03;36.59;101164.66;5051233;28;20854;-74
2022/09/28 00:15:47;;;;;;;18.80;6.30;;;;;;;39.75;36.81;101165.97;5051148;28;20415;-73
2022/09/28 00:18:13;;;;;;;16.27;6.73;;;;;;;39.93;36.70;101155.97;5034892;28;20469;-74
2022/09/28 00:20:39;;;;;;;20.43;8.43;;;;;;;39.89;36.54;101165.88;5046101;28;20445;-73
2022/09/28 00:23:05;;;;;;;18.53;10.13;;;;;;;40.00;36.00;101161.75;5033536;28;20487;-76
2022/09/28 00:25:32;;;;;;;12.57;6.67;;;;;;;40.09;36.30;101157.22;5031394;28;20934;-75
2022/09/28 00:27:58;;;;;;;25.00;7.30;;;;;;;40.41;36.16;101163.38;5034585;28;20408;-75
2022/09/28 00:30:24;;;;;;;22.90;7.33;;;;;;;40.15;36.15;101158.66;5035361;28;20420;-74
2022/09/28 00:32:50;;;;;;;28.37;8.20;;;;;;;40.22;36.29;101164.44;5035227;28;20451;-73
2022/09/28 00:35:16;;;;;;;19.30;6.90;;;;;;;40.21;36.14;101165.56;5035254;28;20909;-74
2022/09/28 00:37:42;;;;;;;16.53;7.17;;;;;;;40.41;36.05;101155.22;5035155;28;20826;-74
2022/09/28 00:40:09;;;;;;;13.43;6.80;;;;;;;40.20;36.35;101153.06;5035592;28;20503;-73
2022/09/28 00:42:35;;;;;;;21.70;7.93;;;;;;;40.24;36.52;101147.81;5035169;28;20910;-74
2022/09/28 00:45:01;;;;;;;18.57;7.00;;;;;;;40.19;36.19;101151.47;5034981;28;20850;-74
2022/09/28 00:47:39;;;;;;;13.77;5.30;;;;;;;40.07;36.69;101151.25;5034977;28;20950;-74
2022/09/28 00:50:10;;;;;;;18.63;8.67;;;;;;;40.17;36.64;101155.63;5035230;28;20442;-74
2022/09/28 00:53:00;;;;;;;14.93;6.60;;;;;;;40.08;36.18;101158.28;5036679;28;20974;-74
2022/09/28 00:55:50;;;;;;;17.37;6.43;;;;;;;40.07;36.07;101145.03;5034873;28;20503;-74
2022/09/28 00:58:35;;;;;;;25.90;8.60;;;;;;;39.99;36.78;101143.88;5036360;28;20976;-74
2022/09/28 01:01:03;;;;;;;19.30;8.43;;;;;;;40.20;35.97;101138.69;5035077;28;20426;-74
2022/09/28 01:03:29;;;;;;;20.33;6.63;;;;;;;40.49;35.97;101138.94;5034579;28;20419;-74
2022/09/28 01:05:58;;;;;;;23.73;8.10;;;;;;;40.69;35.50;101142.94;5034693;28;20416;-74
2022/09/28 01:08:27;;;;;;;21.70;8.43;;;;;;;40.48;36.27;101140.06;5034744;28;20442;-74
2022/09/28 01:10:53;;;;;;;28.63;9.93;;;;;;;40.75;35.52;101138.97;5036142;28;20431;-74
2022/09/28 01:13:20;;;;;;;16.83;7.80;;;;;;;40.73;35.28;101138.50;5034540;28;20415;-74
2022/09/28 01:16:06;;;;;;;19.00;8.50;;;;;;;40.94;35.41;101132.44;5034343;28;20892;-74
2022/09/28 01:18:46;;;;;;;26.57;9.53;;;;;;;40.71;35.51;101135.28;5034422;28;20813;-74
2022/09/28 01:21:22;;;;;;;32.97;11.00;;;;;;;40.81;35.65;101132.25;5034672;28;20488;-74
2022/09/28 01:24:28;;;;;;;28.73;11.60;;;;;;;40.88;35.77;101137.19;5034083;28;20475;-74
2022/09/28 01:27:09;;;;;;;17.73;7.07;;;;;;;40.80;35.37;101132.56;5028540;28;20423;-74
2022/09/28 01:30:04;;;;;;;23.93;8.63;;;;;;;40.80;36.15;101135.28;5034319;28;20498;-75
2022/09/28 01:32:39;;;;;;;25.90;8.90;;;;;;;40.90;35.73;101134.19;5034140;28;20427;-75
2022/09/28 01:35:30;;;;;;;21.93;6.23;;;;;;;40.87;35.72;101140.25;5035715;28;20399;-75
2022/09/28 01:38:04;;;;;;;30.30;7.97;;;;;;;40.68;35.51;101135.91;5033958;28;20475;-75
2022/09/28 01:40:31;;;;;;;18.03;6.20;;;;;;;40.64;35.76;101134.16;5034014;28;20424;-75
2022/09/28 01:43:09;;;;;;;25.33;7.57;;;;;;;40.61;35.89;101130.16;5034007;28;20412;-75
2022/09/28 01:45:44;;;;;;;19.47;7.10;;;;;;;40.41;36.28;101130.75;5033931;28;20426;-73
2022/09/28 01:48:14;;;;;;;15.73;7.00;;;;;;;40.27;36.62;101125.44;5033853;28;20411;-74
2022/09/28 01:50:42;;;;;;;20.27;7.43;;;;;;;40.50;36.15;101124.22;5017997;28;20537;-74
2022/09/28 01:53:19;;;;;;;23.30;7.40;;;;;;;40.61;36.09;101118.47;5033839;28;20503;-74
2022/09/28 01:55:51;;;;;;;22.80;7.63;;;;;;;40.69;35.95;101115.75;5033746;28;20427;-74
2022/09/28 01:58:31;;;;;;;25.93;9.90;;;;;;;40.44;36.20;101117.31;5033667;28;20473;-74
2022/09/28 02:01:17;;;;;;;20.07;8.93;;;;;;;40.37;36.07;101118.91;5033734;28;20429;-74
2022/09/28 02:03:55;;;;;;;30.47;7.23;;;;;;;39.75;37.31;101112.44;5033516;28;20429;-74
2022/09/28 02:06:28;;;;;;;17.83;7.00;;;;;;;40.27;36.64;101117.31;5033615;28;20504;-74
2022/09/28 02:08:59;;;;;;;16.93;6.90;;;;;;;40.05;36.69;101106.53;5035158;28;20432;-74
2022/09/28 02:11:25;;;;;;;20.90;7.23;;;;;;;40.38;36.57;101115.06;5033523;28;20412;-73
2022/09/28 02:14:00;;;;;;;28.67;9.70;;;;;;;40.31;36.66;101120.16;5033390;28;20415;-74
2022/09/28 02:16:39;;;;;;;17.53;6.80;;;;;;;40.22;36.91;101112.81;5033425;28;20461;-73
2022/09/28 02:19:10;;;;;;;18.43;8.20;;;;;;;39.67;37.11;101113.22;5034755;28;20925;-74
2022/09/28 02:21:40;;;;;;;17.23;7.03;;;;;;;40.23;36.44;101114.41;5033258;28;20420;-74
2022/09/28 02:24:12;;;;;;;18.77;6.37;;;;;;;40.58;35.43;101119.94;5032983;28;20478;-74
2022/09/28 02:26:43;;;;;;;9.60;5.57;;;;;;;40.35;36.03;101118.44;5034663;28;20396;-74
2022/09/28 02:29:09;;;;;;;17.30;7.20;;;;;;;40.55;35.97;101126.78;5033012;28;20946;-73
2022/09/28 02:31:35;;;;;;;15.53;5.90;;;;;;;40.10;36.41;101125.41;5033150;28;20438;-74
2022/09/28 02:34:01;;;;;;;14.67;5.90;;;;;;;40.07;36.29;101129.53;5032760;28;20419;-73
2022/09/28 02:36:28;;;;;;;25.03;7.60;;;;;;;40.18;35.91;101121.91;5033046;28;20411;-74
2022/09/28 02:38:57;;;;;;;11.80;5.97;;;;;;;40.66;35.25;101130.00;5034652;28;20404;-74
2022/09/28 02:41:25;;;;;;;30.80;7.33;;;;;;;40.58;35.09;101130.81;5032917;28;20926;-74
2022/09/28 02:44:17;;;;;;;21.20;8.63;;;;;;;40.60;35.38;101123.13;5032883;28;20424;-74
2022/09/28 02:47:13;;;;;;;12.53;7.33;;;;;;;40.44;35.93;101130.91;5032942;28;20518;-74
2022/09/28 02:50:01;;;;;;;23.57;6.40;;;;;;;40.41;35.94;101130.75;5000046;28;20447;-74
2022/09/28 02:53:01;;;;;;;21.73;6.90;;;;;;;40.45;35.67;101134.41;5032606;28;20418;-74
2022/09/28 02:55:40;;;;;;;18.83;7.00;;;;;;;40.77;35.65;101136.75;5034229;28;20403;-74
2022/09/28 02:58:24;;;;;;;12.17;6.90;;;;;;;40.51;35.55;101135.91;5032591;28;20459;-75
2022/09/28 03:01:01;;;;;;;16.60;6.63;;;;;;;40.60;35.35;101136.72;5034241;28;20407;-74
2022/09/28 03:03:36;;;;;;;16.87;5.87;;;;;;;40.16;36.33;101146.69;5032363;28;20423;-75
2022/09/28 03:06:27;;;;;;;49.70;7.33;;;;;;;40.21;36.08;101138.38;5034054;28;20867;-75
2022/09/28 03:09:00;;;;;;;12.30;6.27;;;;;;;40.09;36.47;101140.91;5032667;28;20436;-75
2022/09/28 03:11:57;;;;;;;14.93;6.67;;;;;;;40.44;35.72;101146.41;5032380;28;20800;-75
2022/09/28 03:14:24;;;;;;;14.50;7.53;;;;;;;40.50;35.74;101147.91;5016965;28;20905;-76
2022/09/28 03:16:50;;;;;;;19.87;6.20;;;;;;;40.50;35.73;101150.63;5032104;28;20419;-74
2022/09/28 03:19:21;;;;;;;19.93;6.00;;;;;;;40.69;35.00;101145.66;5032093;28;20469;-74
2022/09/28 03:21:48;;;;;;;11.80;5.83;;;;;;;40.63;35.47;101151.59;5016261;28;20415;-76
2022/09/28 03:24:14;;;;;;;10.10;5.77;;;;;;;40.76;34.81;101147.91;5031957;28;20890;-75
2022/09/28 03:26:40;;;;;;;17.77;5.77;;;;;;;40.77;35.09;101150.34;5033565;28;20402;-76
2022/09/28 03:29:06;;;;;;;26.30;7.13;;;;;;;40.82;35.16;101143.91;5033880;28;20522;-76
2022/09/28 03:31:32;;;;;;;30.27;10.90;;;;;;;41.12;34.87;101144.09;5015617;28;20465;-75
2022/09/28 03:33:58;;;;;;;16.93;8.13;;;;;;;41.17;34.73;101149.38;5032453;28;20557;-74
2022/09/28 03:36:24;;;;;;;18.43;6.33;;;;;;;40.90;34.79;101147.78;5033716;28;20388;-74
2022/09/28 03:38:56;;;;;;;33.67;7.27;;;;;;;40.36;35.67;101156.16;5033432;28;20817;-74
2022/09/28 03:41:29;;;;;;;15.77;6.13;;;;;;;40.65;35.50;101152.09;5031781;28;20471;-73
2022/09/28 03:43:55;;;;;;;10.97;6.37;;;;;;;40.62;34.78;101152.72;5031831;28;20420;-74
2022/09/28 03:46:21;;;;;;;18.27;5.63;;;;;;;40.45;35.29;101148.00;5033307;28;20431;-74
2022/09/28 03:48:47;;;;;;;16.57;5.40;;;;;;;40.11;35.51;101148.72;5031595;28;20960;-73
2022/09/28 03:51:13;;;;;;;18.30;7.77;;;;;;;40.31;35.07;101152.78;5031623;28;20408;-74
2022/09/28 03:53:40;;;;;;;21.63;6.70;;;;;;;40.34;35.17;101144.00;5031578;28;20853;-74
2022/09/28 03:56:11;;;;;;;15.50;6.40;;;;;;;40.37;34.81;101138.72;5031601;28;20411;-73
2022/09/28 03:58:37;;;;;;;21.47;6.30;;;;;;;40.63;34.11;101138.00;5031447;28;20443;-75
2022/09/28 04:01:11;;;;;;;24.80;6.93;;;;;;;40.60;34.19;101150.31;5032321;28;20827;-76
2022/09/28 04:03:37;;;;;;;23.70;7.80;;;;;;;40.64;34.25;101140.41;5031325;28;20836;-76
2022/09/28 04:06:03;;;;;;;13.20;6.30;;;;;;;40.77;34.02;101146.81;5031268;28;20867;-74
2022/09/28 04:08:30;;;;;;;27.67;9.63;;;;;;;40.50;34.48;101145.97;5031465;28;20442;-73
2022/09/28 04:10:57;;;;;;;18.90;6.13;;;;;;;40.32;34.84;101149.75;5031473;28;20448;-73
2022/09/28 04:13:24;;;;;;;21.87;8.20;;;;;;;40.19;34.90;101140.59;5033103;28;20426;-74
2022/09/28 04:15:56;;;;;;;16.50;7.07;;;;;;;40.45;34.81;101140.66;5031322;28;20415;-74
2022/09/28 04:18:23;;;;;;;19.73;6.93;;;;;;;40.66;34.43;101140.88;5031269;28;20890;-74
2022/09/28 04:21:02;;;;;;;16.07;6.60;;;;;;;40.84;34.60;101149.06;5031180;28;20822;-74
2022/09/28 04:23:29;;;;;;;8.07;4.43;;;;;;;40.38;34.37;101147.69;5031151;28;20467;-73
2022/09/28 04:25:55;;;;;;;15.70;5.43;;;;;;;40.40;34.99;101140.03;5031211;28;20473;-74
2022/09/28 04:31:17;;;;;;;17.27;5.53;;;;;;;39.83;36.14;101151.63;5032532;28;20918;-76
2022/09/28 04:33:43;;;;;;;20.40;7.80;;;;;;;40.19;35.31;101147.94;5031168;28;20418;-75
2022/09/28 04:36:09;;;;;;;13.50;5.40;;;;;;;39.82;35.49;101157.38;5031001;28;20419;-75
2022/09/28 04:38:36;;;;;;;14.07;6.00;;;;;;;39.30;36.17;101154.31;5031130;28;20546;-75
2022/09/28 04:41:02;;;;;;;15.23;5.90;;;;;;;39.36;36.44;101158.53;5031165;28;20506;-75
2022/09/28 04:43:29;;;;;;;7.93;5.00;;;;;;;38.97;37.11;101160.72;5030985;28;20994;-75
2022/09/28 04:46:02;;;;;;;15.47;4.93;;;;;;;39.44;36.40;101152.34;5031091;28;20434;-75
2022/09/28 04:48:28;;;;;;;8.17;5.00;;;;;;;38.85;37.37;101152.31;5030978;28;20481;-75
2022/09/28 04:50:55;;;;;;;11.33;5.40;;;;;;;38.82;37.70;101146.72;5031066;28;20426;-75
2022/09/28 04:53:22;;;;;;;11.17;4.90;;;;;;;39.57;36.52;101135.16;5030960;28;20473;-75
2022/09/28 04:56:15;;;;;;;9.20;5.90;;;;;;;39.51;36.29;101141.84;5030913;28;20842;-75
2022/09/28 04:58:41;;;;;;;12.80;6.67;;;;;;;39.94;35.78;101141.28;5027754;28;20466;-75
2022/09/28 05:01:13;;;;;;;14.63;5.90;;;;;;;40.03;35.27;101145.66;5030871;28;20485;-75
2022/09/28 05:03:40;;;;;;;14.13;5.73;;;;;;;39.95;35.36;101135.53;5030751;28;20882;-76
2022/09/28 05:06:06;;;;;;;10.90;5.60;;;;;;;40.21;35.24;101137.59;5030885;28;20415;-75
2022/09/28 05:08:34;;;;;;;12.23;4.17;;;;;;;40.28;34.97;101133.28;5030823;28;20412;-75
2022/09/28 05:11:02;;;;;;;12.03;5.60;;;;;;;40.44;34.16;101139.06;5032340;28;20392;-75
2022/09/28 05:13:29;;;;;;;10.27;4.93;;;;;;;40.49;34.77;101127.25;5033258;28;20418;-75
2022/09/28 05:15:57;;;;;;;11.90;5.90;;;;;;;40.59;34.45;101137.03;5034467;28;20428;-75
2022/09/28 05:18:24;;;;;;;15.37;4.90;;;;;;;40.65;34.22;101136.56;5034521;28;20473;-75
2022/09/28 05:20:50;;;;;;;11.90;6.00;;;;;;;40.66;34.33;101140.88;5034363;28;20455;-75
2022/09/28 05:23:16;;;;;;;23.20;6.70;;;;;;;40.72;34.15;101142.34;5034321;28;20489;-75
2022/09/28 05:25:46;;;;;;;13.37;7.10;;;;;;;40.78;34.51;101143.78;5034372;28;20419;-75
2022/09/28 05:28:12;;;;;;;13.23;6.50;;;;;;;40.71;34.33;101151.63;5034286;28;20982;-75
2022/09/28 05:30:39;;;;;;;14.40;7.20;;;;;;;40.23;35.32;101159.81;5034338;28;20443;-75
2022/09/28 05:33:05;;;;;;;11.63;5.60;;;;;;;39.18;36.86;101157.59;5043747;28;20458;-74
2022/09/28 05:35:31;;;;;;;11.40;6.67;;;;;;;39.61;36.62;101160.63;5042756;28;20426;-74
2022/09/28 05:38:02;;;;;;;18.03;6.27;;;;;;;39.52;36.51;101157.00;5043434;28;20442;-70
2022/09/28 05:40:28;;;;;;;10.63;5.10;;;;;;;39.21;37.03;101184.91;5036597;28;20440;-73
2022/09/28 05:42:59;;;;;;;15.10;5.07;;;;;;;39.00;37.39;101174.81;5040241;28;20463;-73
2022/09/28 05:45:25;;;;;;;9.63;3.80;;;;;;;39.23;36.90;101177.28;5042268;28;21773;-73
2022/09/28 05:47:51;;;;;;;9.37;4.30;;;;;;;39.01;36.73;101181.84;5046706;28;20494;-73
2022/09/28 05:50:17;;;;;;;10.73;4.20;;;;;;;39.11;36.77;101182.41;5050137;28;20573;-73
2022/09/28 05:52:43;;;;;;;10.73;5.10;;;;;;;38.49;37.92;101182.09;5042928;28;20573;-73
2022/09/28 05:55:10;;;;;;;10.13;4.40;;;;;;;38.67;37.58;101178.47;5047096;28;20411;-73
2022/09/28 05:57:36;;;;;;;8.03;4.10;;;;;;;38.99;37.05;101181.34;5044024;28;20446;-73
2022/09/28 06:00:07;;;;;;;12.70;4.60;;;;;;;39.45;36.23;101187.31;5051317;28;20407;-73
2022/09/28 06:02:34;;;;;;;9.60;5.13;;;;;;;39.66;35.80;101182.22;5053311;28;20446;-73
2022/09/28 06:05:00;;;;;;;9.30;4.03;;;;;;;39.95;35.45;101189.84;5053559;28;20937;-74
2022/09/28 06:07:26;;;;;;;9.67;5.40;;;;;;;40.17;35.20;101193.66;5053441;28;20426;-73
2022/09/28 06:09:52;;;;;;;11.40;5.27;;;;;;;40.32;34.92;101195.94;5053362;28;20450;-73
2022/09/28 06:12:19;;;;;;;20.40;7.53;;;;;;;40.47;34.87;101189.28;5053425;28;20449;-73
2022/09/28 06:14:45;;;;;;;14.77;7.53;;;;;;;40.43;34.73;101189.13;5053357;28;20411;-76
2022/09/28 06:17:11;;;;;;;31.63;12.53;;;;;;;40.39;34.88;101195.50;5051455;28;20464;-72
2022/09/28 06:19:38;;;;;;;16.83;9.50;;;;;;;40.29;35.29;101210.19;5041088;28;20445;-76
2022/09/28 06:22:04;;;;;;;20.80;8.97;;;;;;;40.19;35.82;101213.97;5041000;28;20959;-73
2022/09/28 06:24:30;;;;;;;11.00;4.70;;;;;;;40.13;36.17;101223.38;5043323;28;20475;-71
2022/09/28 06:26:56;;;;;;;14.60;5.87;;;;;;;40.38;35.20;101219.16;5050855;28;20520;-73
2022/09/28 06:29:22;;;;;;;11.73;5.67;;;;;;;40.23;35.46;101228.53;5043159;28;20542;-72
2022/09/28 06:31:48;;;;;;;16.37;7.10;;;;;;;40.03;35.96;101223.63;5041925;28;20419;-72
2022/09/28 06:34:14;;;;;;;21.77;6.93;;;;;;;39.89;36.43;101231.06;5047239;28;20423;-71
2022/09/28 06:36:40;;;;;;;21.80;7.10;;;;;;;39.94;36.16;101231.72;5041560;28;20415;-71
2022/09/28 06:39:06;;;;;;;21.40;8.63;;;;;;;40.11;35.84;101236.47;5042206;28;20415;-71
2022/09/28 06:41:32;;;;;;;18.80;7.40;;;;;;;39.96;36.32;101234.13;5037921;28;20426;-72
2022/09/28 06:44:00;;;;;;;26.07;7.97;;;;;;;39.76;36.53;101236.25;5037973;28;20435;-69
2022/09/28 06:46:26;;;;;;;17.23;6.50;;;;;;;39.94;36.44;101245.31;5051869;28;20411;-70
2022/09/28 06:48:53;;;;;;;27.10;10.30;;;;;;;40.33;35.74;101242.97;5052743;28;20505;-72
2022/09/28 06:51:19;;;;;;;27.53;8.67;;;;;;;40.45;35.71;101248.59;5052802;28;20437;-72
2022/09/28 06:53:45;;;;;;;13.87;7.97;;;;;;;40.53;35.64;101264.19;5036233;28;20416;-71
2022/09/28 06:56:11;;;;;;;18.67;8.13;;;;;;;40.50;35.65;101262.09;5034397;28;20396;-71
2022/09/28 06:58:37;;;;;;;21.07;7.47;;;;;;;40.53;35.62;101267.72;5032632;28;20561;-71
2022/09/28 07:01:04;;;;;;;30.63;8.97;;;;;;;40.58;35.73;101271.38;5015965;28;20411;-71
2022/09/28 07:03:30;;;;;;;26.57;9.73;;;;;;;40.65;35.51;101269.84;5043664;28;20431;-72
2022/09/28 07:05:56;;;;;;;17.60;8.90;;;;;;;40.73;35.88;101269.03;5051867;28;20442;-73
2022/09/28 07:08:24;;;;;;;16.50;7.37;;;;;;;40.70;35.68;101277.84;5050738;28;20407;-72
2022/09/28 07:10:55;;;;;;;24.93;8.80;;;;;;;40.61;35.52;101285.16;5050755;28;20945;-73
2022/09/28 07:13:29;;;;;;;19.70;7.10;;;;;;;40.70;36.00;101290.63;5034426;28;20428;-71
2022/09/28 07:15:56;;;;;;;14.03;8.43;;;;;;;40.79;36.04;101288.75;5050280;28;20427;-72
2022/09/28 07:18:23;;;;;;;17.80;7.90;;;;;;;40.71;35.65;101301.22;5051886;28;20495;-71
2022/09/28 07:20:49;;;;;;;14.57;9.70;;;;;;;40.77;35.85;101302.66;5051316;28;20433;-72
2022/09/28 07:23:25;;;;;;;32.83;12.50;;;;;;;40.63;36.02;101306.59;5051234;28;20844;-72
2022/09/28 07:25:53;;;;;;;20.10;9.90;;;;;;;40.78;35.77;101304.25;5052596;28;20406;-72
2022/09/28 07:28:21;;;;;;;12.70;8.70;;;;;;;40.68;35.72;101304.53;5051440;28;20407;-72
2022/09/28 07:30:48;;;;;;;13.10;8.20;;;;;;;40.64;35.53;101306.31;5047791;28;20520;-72
2022/09/28 07:33:15;;;;;;;16.57;7.97;;;;;;;40.27;35.90;101308.34;5051368;28;20417;-72
2022/09/28 07:35:52;;;;;;;17.10;7.43;;;;;;;39.64;36.69;101314.75;5051802;28;20536;-72
2022/09/28 07:38:18;;;;;;;14.37;4.90;;;;;;;39.55;36.70;101313.88;5050064;28;20580;-72
2022/09/28 07:43:29;;;;;;;15.93;7.13;;;;;;;39.15;37.67;101316.34;5050560;28;20429;-72
2022/09/28 07:45:55;;;;;;;9.90;4.80;;;;;;;39.03;37.59;101315.25;5051724;28;20410;-73
2022/09/28 07:48:22;;;;;;;13.70;4.83;;;;;;;39.59;36.99;101317.56;5050325;28;20414;-72
2022/09/28 07:50:52;;;;;;;10.10;4.83;;;;;;;39.61;36.65;101331.69;5051433;28;20406;-72
2022/09/28 07:53:20;;;;;;;9.60;5.57;;;;;;;39.81;36.58;101324.16;5050201;28;20522;-74
2022/09/28 07:56:00;;;;;;;15.03;6.83;;;;;;;39.81;36.33;101324.97;5049908;28;20496;-72
2022/09/28 07:58:27;;;;;;;16.40;5.80;;;;;;;40.07;35.86;101322.44;5050720;28;20497;-72
2022/09/28 08:00:53;;;;;;;18.23;6.93;;;;;;;40.13;35.92;101331.28;5052162;28;20435;-72
2022/09/28 08:03:22;;;;;;;22.77;7.07;;;;;;;40.22;35.58;101326.72;5048112;28;20414;-72
2022/09/28 08:05:48;;;;;;;16.30;6.90;;;;;;;40.08;36.19;101334.13;5050920;28;20445;-72
2022/09/28 08:08:15;;;;;;;19.23;7.20;;;;;;;40.16;36.02;101323.31;5051166;28;20545;-73
2022/09/28 08:10:44;;;;;;;18.50;8.03;;;;;;;40.17;35.86;101324.13;5049598;28;20430;-74
2022/09/28 08:13:10;;;;;;;16.33;9.03;;;;;;;40.25;36.11;101336.94;5049297;28;20423;-73
2022/09/28 08:15:37;;;;;;;12.57;10.00;;;;;;;40.24;36.25;101341.56;5050741;28;20434;-72
2022/09/28 08:18:04;;;;;;;29.53;8.83;;;;;;;40.45;35.82;101344.56;5051102;28;20454;-72
2022/09/28 08:23:19;;;;;;;26.67;9.67;;;;;;;40.41;36.18;101343.59;5059671;28;20539;-75
2022/09/28 08:25:49;;;;;;;12.20;7.70;;;;;;;40.52;35.78;101344.16;5054159;28;20421;-72
2022/09/28 08:28:16;;;;;;;14.70;6.40;;;;;;;40.18;35.73;101345.53;5051383;28;20793;-73
2022/09/28 08:30:46;;;;;;;14.00;6.93;;;;;;;40.17;35.69;101341.22;5054160;28;20406;-72
2022/09/28 08:33:16;;;;;;;11.90;7.40;;;;;;;40.39;35.58;101345.00;5053910;28;20410;-72
2022/09/28 08:35:45;;;;;;;19.27;6.70;;;;;;;40.60;35.44;101337.97;5037895;28;20846;-72
2022/09/28 08:38:12;;;;;;;22.83;8.87;;;;;;;40.59;35.36;101341.78;5054064;28;20453;-70
2022/09/28 08:41:01;;;;;;;12.03;6.03;;;;;;;40.92;34.47;101341.47;5053907;28;20440;-71
2022/09/28 08:43:42;;;;;;;13.13;5.90;;;;;;;41.12;33.83;101342.78;5051591;28;20938;-72
2022/09/28 08:46:12;;;;;;;14.23;6.33;;;;;;;40.87;34.22;101341.56;5053133;28;20413;-72
2022/09/28 08:48:53;;;;;;;11.40;5.40;;;;;;;40.86;34.44;101339.97;5056696;28;20919;-72
2022/09/28 08:51:26;;;;;;;16.40;5.67;;;;;;;41.14;34.23;101344.06;5042966;28;20447;-72
2022/09/28 08:54:06;;;;;;;11.13;6.20;;;;;;;40.44;34.67;101342.16;5072974;28;20469;-73
2022/09/28 08:56:53;;;;;;;13.27;5.00;;;;;;;40.50;34.85;101343.66;5025893;28;20413;-73
2022/09/28 08:59:24;;;;;;;9.90;5.53;;;;;;;40.77;34.30;101340.75;5076121;28;20435;-72
2022/09/28 09:02:02;;;;;;;10.83;5.20;;;;;;;40.14;35.29;101336.38;5039170;28;20428;-72
2022/09/28 09:04:51;;;;;;;9.37;4.80;;;;;;;40.57;34.97;101335.84;5075843;28;20429;-71
2022/09/28 09:07:32;;;;;;;8.50;3.83;;;;;;;40.55;34.81;101336.16;5055638;28;20461;-70
2022/09/28 09:10:18;;;;;;;10.50;4.93;;;;;;;40.87;34.00;101339.63;5037546;28;20521;-72
2022/09/28 09:13:05;;;;;;;10.27;5.67;;;;;;;40.66;34.10;101339.41;4958639;28;20852;-71
2022/09/28 09:15:43;;;;;;;8.17;4.83;;;;;;;40.95;34.29;101344.34;5054126;28;20430;-71
2022/09/28 09:18:15;;;;;;;9.27;5.03;;;;;;;41.18;33.39;101338.78;5071024;28;20507;-71
2022/09/28 09:20:55;;;;;;;12.23;5.67;;;;;;;41.17;33.89;101338.00;5057315;28;20424;-71
2022/09/28 09:23:39;;;;;;;9.83;4.50;;;;;;;40.90;34.24;101344.50;5070618;28;20461;-69
2022/09/28 09:26:16;;;;;;;15.40;5.57;;;;;;;41.17;33.45;101342.63;5037289;28;20944;-71
2022/09/28 09:28:45;;;;;;;8.77;4.73;;;;;;;40.75;34.53;101347.59;5036226;28;20464;-71
2022/09/28 09:31:25;;;;;;;9.43;4.40;;;;;;;41.26;33.63;101346.19;5037494;28;20403;-71
2022/09/28 09:34:20;;;;;;;21.57;5.70;;;;;;;41.46;33.38;101345.59;5055813;28;20387;-71
2022/09/28 09:36:52;;;;;;;12.50;6.00;;;;;;;41.52;33.30;101344.31;5037258;28;20779;-69
2022/09/28 09:39:21;;;;;;;17.33;8.70;;;;;;;41.56;33.58;101347.22;5037402;28;20426;-69
2022/09/28 09:41:47;;;;;;;13.87;10.10;;;;;;;41.61;33.18;101353.28;5037200;28;20442;-71
2022/09/28 09:44:37;;;;;;;20.07;11.20;;;;;;;41.57;33.26;101346.88;5036857;28;20399;-71
2022/09/28 09:47:20;;;;;;;17.53;7.83;;;;;;;41.58;32.96;101347.69;5037462;28;20453;-71
2022/09/28 09:50:01;;;;;;;22.40;11.17;;;;;;;41.61;33.49;101353.28;5037119;28;20422;-69
2022/09/28 09:52:34;;;;;;;20.00;8.20;;;;;;;41.54;33.65;101357.59;5037178;28;20442;-69
2022/09/28 09:55:27;;;;;;;17.80;7.63;;;;;;;41.65;33.56;101342.53;5037162;28;20449;-70
2022/09/28 09:58:11;;;;;;;22.60;10.07;;;;;;;41.72;33.77;101352.97;5055169;28;20525;-70
2022/09/28 10:00:44;;;;;;;21.33;7.60;;;;;;;41.63;33.50;101344.78;5036056;28;20428;-69
2022/09/28 10:03:23;;;;;;;17.77;9.57;;;;;;;41.66;33.82;101344.13;5036759;28;20864;-71
2022/09/28 10:05:58;;;;;;;27.53;7.73;;;;;;;41.62;34.07;101348.66;5056811;28;20421;-70
2022/09/28 10:08:26;;;;;;;15.50;6.60;;;;;;;41.64;34.24;101351.03;5056858;28;20428;-69
2022/09/28 10:11:30;;;;;;;24.93;6.50;;;;;;;41.51;34.09;101342.72;5053473;28;20437;-69
2022/09/28 10:13:56;;;;;;;26.43;7.67;;;;;;;41.80;33.72;101344.00;5052938;28;20416;-71
2022/09/28 10:16:23;;;;;;;16.90;6.50;;;;;;;41.95;33.91;101337.25;5056803;28;20792;-71
2022/09/28 10:18:49;;;;;;;16.93;5.87;;;;;;;41.80;33.78;101333.09;5056593;28;20441;-71
2022/09/28 10:21:19;;;;;;;15.17;5.87;;;;;;;41.89;33.65;101333.09;5056592;28;20406;-71
2022/09/28 10:23:48;;;;;;;16.63;6.33;;;;;;;41.94;33.86;101332.94;5056503;28;20561;-71
2022/09/28 10:26:23;;;;;;;13.73;5.27;;;;;;;41.84;33.90;101331.34;5056472;28;20418;-73
2022/09/28 10:29:00;;;;;;;20.17;7.00;;;;;;;41.76;33.75;101337.59;5056507;28;20981;-71
2022/09/28 10:31:38;;;;;;;17.03;8.80;;;;;;;41.88;33.85;101324.13;5056398;28;20800;-72
2022/09/28 10:34:07;;;;;;;19.87;12.90;;;;;;;41.84;33.88;101332.13;5056499;28;20504;-72
2022/09/28 10:37:02;;;;;;;24.50;13.13;;;;;;;41.89;33.80;101320.28;5074521;28;20386;-71
2022/09/28 10:39:43;;;;;;;12.13;5.87;;;;;;;41.85;34.19;101320.13;5073032;28;20452;-71
2022/09/28 10:42:17;;;;;;;13.63;7.77;;;;;;;41.99;33.96;101316.41;5056222;28;20410;-72
2022/09/28 10:44:58;;;;;;;10.33;6.00;;;;;;;42.03;33.61;101315.44;5055403;28;20440;-73
2022/09/28 10:47:29;;;;;;;15.87;6.43;;;;;;;42.03;33.50;101309.97;5056173;28;20414;-72
2022/09/28 10:49:55;;;;;;;9.50;6.67;;;;;;;41.94;33.53;101305.69;5053002;28;20560;-73
2022/09/28 10:52:41;;;;;;;21.43;8.00;;;;;;;41.91;34.15;101301.66;5054349;28;20497;-73
2022/09/28 10:55:30;;;;;;;19.43;5.93;;;;;;;41.80;34.21;101301.19;5036140;28;20452;-73
2022/09/28 10:58:00;;;;;;;15.30;6.57;;;;;;;41.93;33.88;101299.44;5035758;28;20994;-73
2022/09/28 11:00:34;;;;;;;9.00;5.87;;;;;;;41.78;33.99;101299.94;5035940;28;20442;-71
2022/09/28 11:03:01;;;;;;;12.60;5.77;;;;;;;41.79;33.91;101296.88;5053768;28;20457;-75
2022/09/28 11:05:28;;;;;;;9.30;6.90;;;;;;;41.80;33.96;101303.94;5035946;28;20433;-71
2022/09/28 11:07:58;;;;;;;14.20;6.30;;;;;;;41.45;34.27;101305.06;5035744;28;20502;-71
2022/09/28 11:10:28;;;;;;;27.10;7.40;;;;;;;41.22;34.24;101307.09;5035586;28;20511;-72
2022/09/28 11:12:55;;;;;;;16.77;8.33;;;;;;;40.93;34.82;101299.53;5035703;28;20407;-71
2022/09/28 11:15:43;;;;;;;21.20;7.37;;;;;;;41.03;34.88;101294.59;5036120;28;20422;-71
2022/09/28 11:18:25;;;;;;;22.57;7.27;;;;;;;40.25;35.51;101290.75;5067364;28;20446;-72
2022/09/28 11:20:51;;;;;;;23.73;7.37;;;;;;;40.79;34.86;101281.38;5045296;28;20937;-71
2022/09/28 11:23:22;;;;;;;17.47;7.10;;;;;;;41.03;34.49;101282.91;5043683;28;20458;-71
2022/09/28 11:26:01;;;;;;;21.40;7.70;;;;;;;40.92;34.39;101282.41;5042513;28;20463;-71
2022/09/28 11:28:34;;;;;;;15.93;7.17;;;;;;;40.64;34.80;101287.28;5044944;28;20403;-72
2022/09/28 11:31:02;;;;;;;13.17;5.70;;;;;;;40.69;35.04;101270.78;5058656;28;20875;-70
2022/09/28 11:33:33;;;;;;;21.37;7.00;;;;;;;40.79;34.97;101267.78;5036493;28;20929;-69
2022/09/28 11:36:15;;;;;;;14.70;6.70;;;;;;;40.97;34.36;101256.97;5043782;28;20419;-69
2022/09/28 11:39:03;;;;;;;14.40;5.70;;;;;;;41.32;34.41;101252.34;5061474;28;20529;-69
2022/09/28 11:41:45;;;;;;;22.47;7.90;;;;;;;41.24;34.45;101251.22;5040214;28;20418;-69
2022/09/28 11:44:29;;;;;;;16.63;6.00;;;;;;;41.64;33.87;101255.72;5035116;28;20407;-71
2022/09/28 11:46:58;;;;;;;17.27;7.30;;;;;;;41.68;33.87;101249.31;5035278;28;20453;-72